Time;durP1;ratioP1;P1;durP2;ratioP2;P2;SDS_P1;SDS_P2;PMS_P1;PMS_P2;Temp;Humidity;BMP_temperature;BMP_pressure;BME280_temperature;BME280_humidity;BME280_pressure;Samples;Min_cycle;Max_cycle;Signal;HPM_P1;HPM_P2
2023/01/03 00:00:10;;;;;;;67.50;26.20;;;;;;;12.25;100.00;102356.81;5094792;28;20032;-57
2023/01/03 00:02:36;;;;;;;55.87;24.23;;;;;;;12.48;100.00;102365.81;5117389;28;20043;-54
2023/01/03 00:05:02;;;;;;;59.10;24.25;;;;;;;12.33;100.00;102365.66;5092194;28;20724;-56
2023/01/03 00:07:34;;;;;;;74.93;25.75;;;;;;;12.15;100.00;102365.84;5092827;28;20028;-53
2023/01/03 00:10:02;;;;;;;66.85;25.83;;;;;;;12.17;100.00;102368.38;5107086;28;20032;-55
2023/01/03 00:12:30;;;;;;;67.05;27.58;;;;;;;11.91;100.00;102364.00;5115657;28;20038;-57
2023/01/03 00:14:58;;;;;;;72.90;27.85;;;;;;;12.04;100.00;102368.88;5103278;28;20054;-57
2023/01/03 00:17:25;;;;;;;;;;;;;;;12.18;100.00;102375.41;5110411;28;20040;-54
2023/01/03 00:19:50;;;;;;;56.20;24.77;;;;;;;12.27;100.00;102368.19;5118171;28;19908;-55
2023/01/03 00:22:17;;;;;;;71.07;28.02;;;;;;;12.28;100.00;102375.25;5112606;28;20066;-57
2023/01/03 00:24:43;;;;;;;58.03;26.52;;;;;;;12.39;100.00;102374.88;5108181;28;20039;-56
2023/01/03 00:27:10;;;;;;;65.05;28.95;;;;;;;12.38;100.00;102381.25;5114786;28;20061;-56
2023/01/03 00:29:35;;;;;;;65.50;27.35;;;;;;;12.40;100.00;102386.47;5093104;28;20040;-55
2023/01/03 00:32:01;;;;;;;57.03;24.87;;;;;;;12.39;100.00;102399.03;5097321;28;20054;-55
2023/01/03 00:34:26;;;;;;;59.47;25.73;;;;;;;13.20;100.00;102395.47;5109556;28;20104;-56
2023/01/03 00:36:53;;;;;;;61.80;28.67;;;;;;;12.42;100.00;102397.84;5114862;28;20035;-54
2023/01/03 00:39:18;;;;;;;56.28;25.48;;;;;;;12.63;100.00;102394.63;5108757;28;20100;-56
2023/01/03 00:41:44;;;;;;;53.92;23.35;;;;;;;12.71;100.00;102401.84;5112781;28;20062;-53
2023/01/03 00:44:11;;;;;;;52.33;23.02;;;;;;;12.48;100.00;102398.03;5112152;28;20032;-56
2023/01/03 00:46:37;;;;;;;46.80;22.98;;;;;;;12.57;100.00;102398.84;5105553;28;20034;-56
2023/01/03 00:49:03;;;;;;;46.30;21.20;;;;;;;12.57;100.00;102395.31;5107632;28;20056;-57
2023/01/03 00:51:32;;;;;;;44.67;20.20;;;;;;;12.23;100.00;102391.00;5108576;28;20034;-54
2023/01/03 00:53:59;;;;;;;43.83;19.98;;;;;;;12.66;100.00;102391.59;5112047;28;20028;-56
2023/01/03 00:56:28;;;;;;;47.50;21.00;;;;;;;12.07;100.00;102384.63;5113104;28;20107;-56
2023/01/03 00:58:54;;;;;;;43.38;19.83;;;;;;;12.55;100.00;102394.66;5105016;28;20033;-56
2023/01/03 01:01:21;;;;;;;43.78;18.92;;;;;;;12.33;100.00;102395.16;5109958;28;20032;-54
2023/01/03 01:03:51;;;;;;;44.10;19.52;;;;;;;12.98;100.00;102397.06;5092903;28;20036;-55
2023/01/03 01:06:31;;;;;;;46.92;20.48;;;;;;;13.18;100.00;102408.25;5109094;28;20103;-53
2023/01/03 01:08:59;;;;;;;46.95;19.83;;;;;;;13.15;100.00;102397.84;5097050;28;20082;-53
2023/01/03 01:11:27;;;;;;;46.97;19.65;;;;;;;13.45;100.00;102411.50;5113119;28;20046;-55
2023/01/03 01:13:54;;;;;;;48.58;20.80;;;;;;;12.66;100.00;102401.50;5109640;28;20043;-55
2023/01/03 01:16:22;;;;;;;42.33;19.13;;;;;;;12.96;100.00;102402.63;5111989;28;20044;-54
2023/01/03 01:18:49;;;;;;;42.05;18.88;;;;;;;13.72;100.00;102403.94;5105820;28;20032;-56
2023/01/03 01:21:18;;;;;;;44.63;20.25;;;;;;;13.87;100.00;102402.16;5106729;28;20120;-53
2023/01/03 01:23:45;;;;;;;42.50;19.73;;;;;;;12.99;100.00;102404.94;5111085;28;20039;-56
2023/01/03 01:26:14;;;;;;;44.30;20.17;;;;;;;13.56;100.00;102415.66;5087849;28;20086;-52
2023/01/03 01:28:39;;;;;;;43.33;19.38;;;;;;;12.81;100.00;102407.00;5110035;28;20037;-57
2023/01/03 01:31:06;;;;;;;47.50;19.77;;;;;;;12.67;100.00;102413.91;5113322;28;20575;-56
2023/01/03 01:33:33;;;;;;;47.08;19.17;;;;;;;12.55;100.00;102416.94;5111614;28;20057;-57
2023/01/03 01:36:08;;;;;;;52.15;21.95;;;;;;;12.44;100.00;102417.31;5114166;28;20044;-55
2023/01/03 01:38:34;;;;;;;47.85;21.42;;;;;;;12.61;100.00;102426.16;5111875;28;20036;-54
2023/01/03 01:40:59;;;;;;;50.47;21.33;;;;;;;12.47;100.00;102425.88;5109768;28;20063;-52
2023/01/03 01:46:25;;;;;;;51.20;23.17;;;;;;;12.36;100.00;102425.38;5097572;28;20040;-56
2023/01/03 01:48:57;;;;;;;48.72;22.50;;;;;;;12.32;100.00;102414.94;5109720;28;20050;-54
2023/01/03 01:51:28;;;;;;;58.55;23.48;;;;;;;12.36;100.00;102415.47;5109178;28;20035;-54
2023/01/03 01:53:59;;;;;;;50.72;21.88;;;;;;;11.99;100.00;102414.06;5105458;28;20035;-54
2023/01/03 01:56:32;;;;;;;58.90;23.05;;;;;;;12.32;100.00;102430.22;5112457;28;20048;-54
2023/01/03 01:58:58;;;;;;;53.97;22.88;;;;;;;12.28;100.00;102426.22;5107642;28;20118;-56
2023/01/03 02:01:24;;;;;;;51.47;22.57;;;;;;;11.72;100.00;102419.56;5104646;28;20037;-55
2023/01/03 02:03:56;;;;;;;52.25;21.92;;;;;;;11.96;100.00;102425.13;5106565;28;20092;-55
2023/01/03 02:06:23;;;;;;;54.30;23.25;;;;;;;12.23;100.00;102426.69;5116863;28;20039;-55
2023/01/03 02:08:48;;;;;;;58.53;26.20;;;;;;;12.02;100.00;102433.38;5123129;28;20032;-54
2023/01/03 02:11:39;;;;;;;54.53;22.63;;;;;;;12.09;100.00;102435.41;5119395;28;20062;-52
2023/01/03 02:14:10;;;;;;;59.63;24.00;;;;;;;11.82;100.00;102431.97;5117834;28;20275;-55
2023/01/03 02:16:47;;;;;;;60.95;26.75;;;;;;;11.46;100.00;102430.38;5118779;28;20028;-56
2023/01/03 02:19:44;;;;;;;61.45;25.95;;;;;;;11.43;100.00;102430.72;5122876;28;20118;-55
2023/01/03 02:22:33;;;;;;;64.78;27.17;;;;;;;11.18;100.00;102433.28;5119598;28;20028;-54
2023/01/03 02:25:24;;;;;;;67.22;27.52;;;;;;;10.87;100.00;102436.47;5119065;28;20055;-55
2023/01/03 02:28:22;;;;;;;65.03;29.77;;;;;;;11.03;100.00;102431.19;5120697;28;20020;-54
2023/01/03 02:30:54;;;;;;;58.92;27.17;;;;;;;11.26;100.00;102441.34;5117039;28;20039;-56
2023/01/03 02:33:31;;;;;;;64.43;27.20;;;;;;;11.29;100.00;102446.38;5116276;28;20056;-56
2023/01/03 02:36:27;;;;;;;57.75;25.85;;;;;;;11.90;100.00;102443.56;5104077;28;20149;-55
2023/01/03 02:39:06;;;;;;;60.60;28.55;;;;;;;11.61;100.00;102446.66;5123538;28;20035;-53
2023/01/03 02:41:42;;;;;;;67.45;29.35;;;;;;;11.83;100.00;102442.56;5115234;28;20110;-55
2023/01/03 02:44:24;;;;;;;59.53;28.05;;;;;;;11.58;100.00;102442.50;5098295;28;20046;-56
2023/01/03 02:46:55;;;;;;;52.38;27.77;;;;;;;12.21;100.00;102433.22;5119822;28;20087;-56
2023/01/03 02:49:41;;;;;;;61.30;26.17;;;;;;;11.79;100.00;102433.16;5120014;28;20043;-55
2023/01/03 02:52:15;;;;;;;62.72;30.67;;;;;;;11.69;100.00;102435.13;5122788;28;20028;-57
2023/01/03 02:54:54;;;;;;;64.07;28.75;;;;;;;11.73;100.00;102448.06;5116347;28;20032;-54
2023/01/03 02:57:36;;;;;;;63.90;28.65;;;;;;;11.80;100.00;102442.03;5118924;28;20059;-54
2023/01/03 03:00:09;;;;;;;65.40;29.45;;;;;;;11.74;100.00;102438.16;5117746;28;20055;-53
2023/01/03 03:02:38;;;;;;;61.92;28.33;;;;;;;11.72;100.00;102434.81;5121570;28;20036;-54
2023/01/03 03:05:07;;;;;;;68.05;26.88;;;;;;;11.53;100.00;102434.06;5121733;28;20048;-54
2023/01/03 03:07:35;;;;;;;60.95;28.08;;;;;;;11.46;100.00;102433.06;5122409;28;20035;-55
2023/01/03 03:15:42;;;;;;;57.55;28.10;;;;;;;11.14;100.00;102429.25;5117938;28;20035;-55
2023/01/03 03:18:16;;;;;;;65.32;30.58;;;;;;;11.15;100.00;102423.72;5118547;28;20564;-53
2023/01/03 03:26:29;;;;;;;63.25;30.13;;;;;;;10.82;100.00;102428.06;5117619;28;20032;-54
2023/01/03 03:29:03;;;;;;;77.05;33.38;;;;;;;11.09;100.00;102423.53;5118545;28;20032;-54
2023/01/03 03:31:50;;;;;;;72.95;32.53;;;;;;;11.27;100.00;102426.94;5116262;28;20035;-52
2023/01/03 03:34:30;;;;;;;67.78;31.45;;;;;;;11.18;100.00;102425.25;5116694;28;20061;-55
2023/01/03 03:37:09;;;;;;;62.33;32.88;;;;;;;10.92;100.00;102431.47;5119061;28;20051;-54
2023/01/03 03:45:28;;;;;;;73.93;33.50;;;;;;;10.85;100.00;102433.94;5115610;28;20056;-54
2023/01/03 03:48:07;;;;;;;66.68;33.22;;;;;;;10.80;100.00;102432.72;5099805;28;20036;-56
2023/01/03 03:50:39;;;;;;;62.08;31.10;;;;;;;10.56;100.00;102431.56;5121085;28;20036;-55
2023/01/03 03:53:08;;;;;;;67.00;31.48;;;;;;;10.30;100.00;102435.03;5118744;28;20066;-55
2023/01/03 03:55:42;;;;;;;62.85;32.72;;;;;;;10.14;100.00;102431.19;5121782;28;20032;-54
2023/01/03 03:58:16;;;;;;;65.47;30.88;;;;;;;10.08;100.00;102439.84;5118993;28;20096;-54
2023/01/03 04:00:44;;;;;;;64.40;30.98;;;;;;;10.17;100.00;102430.91;5102031;28;20028;-56
2023/01/03 04:03:11;;;;;;;58.45;30.35;;;;;;;9.96;100.00;102438.41;5121152;28;20032;-53
2023/01/03 04:05:42;;;;;;;60.60;31.48;;;;;;;10.16;100.00;102434.59;5125090;28;20032;-55
2023/01/03 04:08:09;;;;;;;65.75;31.60;;;;;;;9.68;100.00;102433.94;5114566;28;20024;-52
2023/01/03 04:10:35;;;;;;;57.42;30.10;;;;;;;9.47;100.00;102444.88;5119742;28;20039;-55
2023/01/03 04:13:01;;;;;;;62.63;30.67;;;;;;;9.90;100.00;102440.66;5121877;28;20111;-52
2023/01/03 04:15:27;;;;;;;64.53;30.47;;;;;;;9.60;100.00;102447.22;5124291;28;20057;-53
2023/01/03 04:17:52;;;;;;;56.92;29.27;;;;;;;9.88;100.00;102442.66;5119058;28;20036;-54
2023/01/03 04:20:18;;;;;;;66.83;27.80;;;;;;;9.73;100.00;102445.00;5101670;28;20044;-53
2023/01/03 04:22:44;;;;;;;54.45;29.15;;;;;;;9.85;100.00;102447.47;5120908;28;20050;-53
2023/01/03 04:25:09;;;;;;;63.27;29.17;;;;;;;10.03;100.00;102448.34;5120486;28;20032;-55
2023/01/03 04:27:35;;;;;;;66.33;27.77;;;;;;;10.45;100.00;102446.88;5119032;28;20288;-54
2023/01/03 04:30:02;;;;;;;58.90;27.55;;;;;;;10.41;100.00;102452.69;5117960;28;20024;-52
2023/01/03 04:32:28;;;;;;;60.55;26.42;;;;;;;10.22;100.00;102446.47;5117011;28;20028;-54
2023/01/03 04:34:54;;;;;;;58.03;27.10;;;;;;;10.54;100.00;102457.63;5103137;28;20058;-54
2023/01/03 04:37:19;;;;;;;61.22;29.67;;;;;;;10.57;100.00;102455.50;5119210;28;20043;-53
2023/01/03 04:39:44;;;;;;;52.37;26.67;;;;;;;10.47;100.00;102455.59;5117868;28;20047;-56
2023/01/03 04:44:54;;;;;;;47.85;24.52;;;;;;;10.80;100.00;102472.88;5115753;28;20039;-56
2023/01/03 04:47:20;;;;;;;49.20;24.93;;;;;;;10.75;100.00;102470.69;5118063;28;20024;-55
2023/01/03 04:49:46;;;;;;;61.07;25.23;;;;;;;10.33;100.00;102464.13;5114687;28;20296;-55
2023/01/03 04:52:13;;;;;;;54.33;26.50;;;;;;;10.39;100.00;102468.88;5117095;28;20039;-56
2023/01/03 04:54:39;;;;;;;51.97;24.85;;;;;;;10.57;100.00;102458.19;5116117;28;20092;-56
2023/01/03 04:57:05;;;;;;;49.75;24.65;;;;;;;9.47;100.00;102455.56;5118434;28;20031;-55
2023/01/03 04:59:31;;;;;;;46.38;22.88;;;;;;;10.63;100.00;102451.38;5115481;28;20065;-54
2023/01/03 05:01:56;;;;;;;47.23;22.27;;;;;;;10.73;100.00;102452.09;5125180;28;20028;-53
2023/01/03 05:04:22;;;;;;;51.87;24.27;;;;;;;9.71;100.00;102449.66;5122088;28;20267;-52
2023/01/03 05:06:47;;;;;;;46.77;22.90;;;;;;;9.62;100.00;102458.59;5118703;28;20024;-54
2023/01/03 05:09:13;;;;;;;47.63;23.90;;;;;;;9.39;100.00;102452.78;5117684;28;20336;-54
2023/01/03 05:11:38;;;;;;;51.22;23.48;;;;;;;9.50;100.00;102455.28;5120294;28;20028;-57
2023/01/03 05:14:04;;;;;;;56.40;22.60;;;;;;;9.46;100.00;102449.38;5117955;28;20047;-56
2023/01/03 05:16:30;;;;;;;46.67;22.70;;;;;;;9.41;100.00;102458.81;5101895;28;20036;-56
2023/01/03 05:18:56;;;;;;;;;;;;;;;9.20;100.00;102465.22;5121342;28;20236;-54
2023/01/03 05:26:53;;;;;;;43.57;21.93;;;;;;;9.34;100.00;102461.22;5121963;28;20054;-54
2023/01/03 05:29:20;;;;;;;44.20;20.45;;;;;;;9.29;100.00;102459.03;5122569;28;20028;-55
2023/01/03 05:31:47;;;;;;;46.17;21.23;;;;;;;9.11;100.00;102444.75;5100131;28;20028;-55
2023/01/03 05:34:13;;;;;;;40.55;20.20;;;;;;;9.87;100.00;102437.47;5118106;28;20113;-56
2023/01/03 05:36:39;;;;;;;46.58;21.23;;;;;;;9.93;100.00;102438.72;5117988;28;20036;-55
2023/01/03 05:39:05;;;;;;;39.00;20.77;;;;;;;10.26;100.00;102439.81;5120013;28;20043;-53
2023/01/03 05:44:16;;;;;;;43.20;20.90;;;;;;;10.24;100.00;102431.13;5120840;28;20040;-53
2023/01/03 05:46:42;;;;;;;46.78;20.80;;;;;;;10.40;100.00;102435.81;5121115;28;20024;-57
2023/01/03 05:49:07;;;;;;;40.67;20.67;;;;;;;10.52;100.00;102443.59;5122146;28;20064;-57
2023/01/03 05:51:33;;;;;;;42.72;19.15;;;;;;;10.41;100.00;102444.66;5122172;28;20032;-55
2023/01/03 05:53:58;;;;;;;54.67;21.33;;;;;;;10.53;100.00;102445.25;5122303;28;20036;-57
2023/01/03 05:56:23;;;;;;;41.63;20.70;;;;;;;10.16;100.00;102433.72;5127202;28;20310;-53
2023/01/03 05:58:49;;;;;;;51.23;18.83;;;;;;;10.50;100.00;102440.22;5121948;28;20031;-52
2023/01/03 06:01:15;;;;;;;42.63;18.97;;;;;;;10.68;100.00;102443.72;5127763;28;20039;-54
2023/01/03 06:03:45;;;;;;;39.75;18.70;;;;;;;10.80;100.00;102438.09;5125502;28;20047;-54
2023/01/03 06:06:14;;;;;;;43.75;19.38;;;;;;;10.64;100.00;102439.69;5127587;28;20066;-51
2023/01/03 06:08:40;;;;;;;39.75;18.83;;;;;;;10.70;100.00;102433.69;5117872;28;20102;-56
2023/01/03 06:11:16;;;;;;;40.83;17.65;;;;;;;10.61;100.00;102432.78;5120401;28;20051;-56
2023/01/03 06:13:41;;;;;;;37.05;19.02;;;;;;;10.15;100.00;102427.56;5102531;28;20035;-54
2023/01/03 06:19:01;;;;;;;33.38;16.83;;;;;;;10.32;100.00;102414.31;5119851;28;20268;-54
2023/01/03 06:21:27;;;;;;;40.85;16.67;;;;;;;10.44;100.00;102421.13;5121659;28;20051;-56
2023/01/03 06:23:53;;;;;;;38.45;16.58;;;;;;;10.52;100.00;102432.88;5119305;28;20036;-56
2023/01/03 06:26:21;;;;;;;39.60;17.17;;;;;;;10.74;100.00;102416.31;5107617;28;20040;-54
2023/01/03 06:28:47;;;;;;;39.97;16.58;;;;;;;10.64;100.00;102415.59;5118367;28;20059;-54
2023/01/03 06:31:13;;;;;;;42.60;17.00;;;;;;;10.83;100.00;102417.22;5121760;28;20050;-56
2023/01/03 06:33:39;;;;;;;39.17;17.58;;;;;;;10.66;100.00;102418.94;5117786;28;20044;-57
2023/01/03 06:36:07;;;;;;;30.93;15.20;;;;;;;10.78;100.00;102422.22;5116457;28;20062;-51
2023/01/03 06:38:33;;;;;;;31.95;14.68;;;;;;;10.87;100.00;102413.22;5106520;28;20268;-58
2023/01/03 06:40:59;;;;;;;42.08;17.10;;;;;;;10.80;100.00;102409.50;5110191;28;20059;-55
2023/01/03 06:43:26;;;;;;;32.95;15.38;;;;;;;10.31;100.00;102399.25;5115449;28;20036;-56
2023/01/03 06:54:23;;;;;;;34.47;14.93;;;;;;;11.07;100.00;102414.81;5106103;28;20064;-55
2023/01/03 06:56:49;;;;;;;31.70;14.88;;;;;;;11.09;100.00;102415.53;5112856;28;20040;-56
2023/01/03 06:59:16;;;;;;;41.13;16.25;;;;;;;10.85;100.00;102417.88;5109533;28;20040;-55
2023/01/03 07:01:42;;;;;;;34.55;16.35;;;;;;;11.01;100.00;102409.09;5113050;28;20028;-56
2023/01/03 07:04:07;;;;;;;37.72;14.57;;;;;;;10.59;100.00;102408.03;5111592;28;20051;-56
2023/01/03 07:06:32;;;;;;;34.77;15.17;;;;;;;10.82;100.00;102417.34;5116308;28;20040;-51
2023/01/03 07:08:58;;;;;;;35.15;15.80;;;;;;;11.01;100.00;102409.09;5109234;28;20046;-54
2023/01/03 07:11:23;;;;;;;36.00;14.63;;;;;;;11.24;100.00;102410.38;5113062;28;20031;-56
2023/01/03 07:13:59;;;;;;;32.83;15.13;;;;;;;11.18;100.00;102410.00;5109722;28;20035;-54
2023/01/03 07:16:29;;;;;;;33.92;14.15;;;;;;;11.21;100.00;102406.19;5114764;28;20035;-57
2023/01/03 07:18:56;;;;;;;33.88;14.43;;;;;;;11.12;100.00;102407.16;5107179;28;20055;-56
2023/01/03 07:21:24;;;;;;;34.88;13.57;;;;;;;11.19;100.00;102397.47;5111623;28;20420;-58
2023/01/03 07:23:52;;;;;;;32.70;13.32;;;;;;;11.00;100.00;102396.72;5108938;28;20036;-54
2023/01/03 07:26:18;;;;;;;33.35;14.27;;;;;;;11.00;100.00;102402.06;5110513;28;20024;-55
2023/01/03 07:28:43;;;;;;;34.60;13.88;;;;;;;10.93;100.00;102398.38;5105407;28;20038;-55
2023/01/03 07:31:09;;;;;;;27.87;13.80;;;;;;;10.80;100.00;102388.09;5115961;28;20032;-52
2023/01/03 07:33:37;;;;;;;23.10;12.32;;;;;;;10.93;100.00;102403.72;5112026;28;20052;-55
2023/01/03 07:36:06;;;;;;;26.75;12.73;;;;;;;10.94;100.00;102415.25;5111955;28;20042;-54
2023/01/03 07:38:32;;;;;;;28.38;12.90;;;;;;;10.99;100.00;102419.13;5116264;28;20088;-55
2023/01/03 07:41:00;;;;;;;25.15;11.43;;;;;;;10.81;100.00;102426.38;5117043;28;20032;-54
2023/01/03 07:43:38;;;;;;;30.35;12.68;;;;;;;10.58;100.00;102433.09;5116741;28;20039;-57
2023/01/03 07:46:09;;;;;;;33.47;14.32;;;;;;;10.74;100.00;102448.44;5117005;28;20032;-56
2023/01/03 07:48:36;;;;;;;30.80;13.75;;;;;;;10.80;100.00;102446.97;5120598;28;20035;-54
2023/01/03 07:51:04;;;;;;;31.83;12.90;;;;;;;10.52;100.00;102448.94;5117924;28;20058;-56
2023/01/03 07:53:30;;;;;;;26.67;12.48;;;;;;;10.36;100.00;102444.28;5115207;28;20048;-55
2023/01/03 07:56:18;;;;;;;27.40;12.57;;;;;;;10.73;100.00;102444.06;5119435;28;20039;-57
2023/01/03 07:58:43;;;;;;;34.83;14.45;;;;;;;10.80;100.00;102430.91;5122545;28;20035;-53
2023/01/03 08:01:15;;;;;;;30.95;13.48;;;;;;;10.99;100.00;102427.16;5122430;28;20071;-55
2023/01/03 08:03:41;;;;;;;28.67;12.65;;;;;;;10.56;100.00;102423.53;5116696;28;20024;-53
2023/01/03 08:06:18;;;;;;;34.03;13.40;;;;;;;10.59;100.00;102434.78;5114377;28;20032;-56
2023/01/03 08:08:44;;;;;;;34.90;13.48;;;;;;;10.60;100.00;102440.97;5115652;28;20036;-56
2023/01/03 08:13:56;;;;;;;26.48;14.40;;;;;;;10.65;100.00;102452.06;5118395;28;20091;-56
2023/01/03 08:16:22;;;;;;;28.60;13.60;;;;;;;10.67;100.00;102452.72;5124651;28;20036;-54
2023/01/03 08:18:47;;;;;;;26.90;12.60;;;;;;;11.25;100.00;102457.59;5118529;28;20066;-54
2023/01/03 08:21:14;;;;;;;26.42;12.90;;;;;;;10.90;100.00;102454.91;5117982;28;20032;-58
2023/01/03 08:23:39;;;;;;;;;;;;;;;10.67;100.00;102462.59;5115295;28;20032;-54
2023/01/03 08:26:10;;;;;;;32.20;13.37;;;;;;;10.55;100.00;102464.66;5121065;28;19908;-58
2023/01/03 08:28:36;;;;;;;27.85;12.40;;;;;;;10.96;100.00;102461.47;5116998;28;20032;-56
2023/01/03 08:31:05;;;;;;;23.70;11.73;;;;;;;10.83;100.00;102472.56;5113928;28;20101;-54
2023/01/03 08:33:37;;;;;;;28.63;12.93;;;;;;;10.65;100.00;102459.22;5117095;28;20085;-56
2023/01/03 08:36:05;;;;;;;27.27;12.70;;;;;;;10.94;100.00;102464.28;5117257;28;20024;-54
2023/01/03 08:38:56;;;;;;;38.10;12.70;;;;;;;10.73;100.00;102467.34;5117797;28;20092;-57
2023/01/03 08:41:25;;;;;;;30.38;12.60;;;;;;;10.53;100.00;102472.00;5114339;28;20091;-57
2023/01/03 08:43:53;;;;;;;31.48;13.05;;;;;;;10.68;100.00;102470.47;5117162;28;20054;-54
2023/01/03 08:46:19;;;;;;;30.13;15.93;;;;;;;10.40;100.00;102465.25;5117777;28;20069;-56
2023/01/03 08:48:46;;;;;;;38.13;17.45;;;;;;;10.24;100.00;102481.09;5118258;28;20060;-54
2023/01/03 08:51:11;;;;;;;41.13;17.10;;;;;;;10.30;100.00;102469.78;5112510;28;20039;-56
2023/01/03 08:53:37;;;;;;;42.63;17.43;;;;;;;10.43;100.00;102462.25;5121249;28;20032;-54
2023/01/03 08:56:02;;;;;;;34.60;15.30;;;;;;;10.45;100.00;102449.56;5116137;28;20283;-55
2023/01/03 08:58:27;;;;;;;34.17;15.80;;;;;;;10.95;100.00;102459.75;5118857;28;20032;-58
2023/01/03 09:00:53;;;;;;;42.70;17.17;;;;;;;10.96;100.00;102467.63;5120622;28;20057;-58
2023/01/03 09:03:19;;;;;;;48.57;17.97;;;;;;;10.97;100.00;102468.50;5117454;28;20032;-58
2023/01/03 09:05:44;;;;;;;40.43;18.23;;;;;;;10.75;100.00;102466.16;5100541;28;20268;-53
2023/01/03 09:08:10;;;;;;;44.83;18.63;;;;;;;10.79;100.00;102472.06;5121979;28;20024;-57
2023/01/03 09:10:35;;;;;;;43.45;18.70;;;;;;;10.94;100.00;102479.50;5117181;28;20050;-56
2023/01/03 09:13:03;;;;;;;50.15;21.40;;;;;;;10.78;100.00;102470.38;5116845;28;20041;-56
2023/01/03 09:15:29;;;;;;;53.67;21.35;;;;;;;10.99;100.00;102472.66;5118617;28;20032;-57
2023/01/03 09:17:55;;;;;;;55.38;22.65;;;;;;;10.90;100.00;102478.97;5118355;28;20044;-54
2023/01/03 09:20:20;;;;;;;59.80;23.87;;;;;;;11.37;100.00;102475.03;5115275;28;20038;-57
2023/01/03 09:22:46;;;;;;;57.57;24.97;;;;;;;11.28;100.00;102482.19;5109608;28;20032;-50
2023/01/03 09:25:14;;;;;;;53.17;21.30;;;;;;;11.09;100.00;102485.13;5110987;28;20282;-57
2023/01/03 09:27:44;;;;;;;56.38;24.13;;;;;;;11.24;100.00;102480.84;5108436;28;20040;-55
2023/01/03 09:30:10;;;;;;;53.58;21.92;;;;;;;11.51;100.00;102476.28;5111488;28;20036;-57
2023/01/03 09:32:35;;;;;;;58.60;21.17;;;;;;;11.50;100.00;102471.91;5111832;28;20035;-57
2023/01/03 09:35:00;;;;;;;64.93;22.67;;;;;;;11.52;100.00;102467.22;5108718;28;20061;-55
2023/01/03 09:37:26;;;;;;;54.03;23.83;;;;;;;11.03;100.00;102474.03;5111886;28;20070;-57
2023/01/03 09:39:51;;;;;;;54.97;20.57;;;;;;;11.51;100.00;102462.88;5105549;28;20100;-56
2023/01/03 09:45:06;;;;;;;48.97;19.60;;;;;;;11.96;100.00;102458.16;5108234;28;20103;-58
2023/01/03 09:47:35;;;;;;;45.97;19.20;;;;;;;11.92;100.00;102464.84;5113348;28;20058;-57
2023/01/03 09:50:01;;;;;;;45.20;19.17;;;;;;;11.72;100.00;102465.13;5110054;28;20058;-54
2023/01/03 10:04:35;;;;;;;45.55;19.40;;;;;;;12.19;100.00;102466.41;5107195;28;20035;-56
2023/01/03 10:07:20;;;;;;;60.70;20.75;;;;;;;12.03;100.00;102464.56;5107998;28;20032;-55
2023/01/03 10:10:07;;;;;;;46.22;18.65;;;;;;;11.63;100.00;102471.47;5109543;28;20036;-55
2023/01/03 10:12:57;;;;;;;51.22;19.02;;;;;;;11.95;100.00;102467.22;5104628;28;20081;-57
2023/01/03 10:15:55;;;;;;;52.13;19.70;;;;;;;11.07;100.00;102466.53;5107110;28;20573;-55
2023/01/03 10:18:53;;;;;;;49.45;17.55;;;;;;;11.08;100.00;102464.72;5099897;28;20044;-55
2023/01/03 10:21:28;;;;;;;42.63;18.15;;;;;;;11.05;100.00;102477.38;5081842;28;20063;-53
2023/01/03 10:23:54;;;;;;;55.10;20.35;;;;;;;11.14;100.00;102470.25;5104702;28;20031;-54
2023/01/03 10:26:23;;;;;;;53.88;19.48;;;;;;;11.36;100.00;102467.19;5109762;28;20032;-55
2023/01/03 10:28:49;;;;;;;52.63;18.02;;;;;;;11.66;100.00;102470.31;5114288;28;20056;-53
2023/01/03 10:32:04;;;;;;;44.67;17.77;;;;;;;12.25;100.00;102466.78;5097726;28;20047;-56
2023/01/03 10:34:30;;;;;;;50.28;19.63;;;;;;;12.45;100.00;102460.06;5050216;28;20049;-57
2023/01/03 10:36:56;;;;;;;47.95;19.95;;;;;;;12.33;100.00;102456.88;5098912;28;20052;-54
2023/01/03 10:39:30;;;;;;;43.77;18.83;;;;;;;12.30;100.00;102457.19;5098296;28;20043;-54
2023/01/03 10:41:58;;;;;;;50.50;17.88;;;;;;;11.48;100.00;102456.03;5097516;28;20024;-55
2023/01/03 10:44:26;;;;;;;44.37;17.10;;;;;;;11.80;100.00;102458.97;5100690;28;20044;-56
2023/01/03 10:46:55;;;;;;;52.25;20.75;;;;;;;12.04;100.00;102468.09;5097544;28;20295;-55
2023/01/03 10:49:23;;;;;;;46.13;18.40;;;;;;;12.50;100.00;102450.69;5097976;28;20060;-52
2023/01/03 10:51:54;;;;;;;65.40;23.15;;;;;;;11.97;100.00;102456.31;5095429;28;20035;-53
2023/01/03 10:54:34;;;;;;;61.10;24.55;;;;;;;12.64;100.00;102460.72;5100372;28;20028;-52
2023/01/03 10:57:00;;;;;;;60.97;25.63;;;;;;;12.73;100.00;102475.81;5101023;28;20029;-57
2023/01/03 10:59:31;;;;;;;56.38;23.65;;;;;;;12.62;100.00;102478.84;5103605;28;20338;-55
2023/01/03 11:02:15;;;;;;;54.50;22.03;;;;;;;12.40;100.00;102465.09;5095557;28;20033;-52
2023/01/03 11:04:42;;;;;;;56.33;19.70;;;;;;;12.07;100.00;102469.59;5097337;28;20269;-53
2023/01/03 11:07:08;;;;;;;43.73;18.70;;;;;;;12.86;100.00;102469.06;5096980;28;20265;-54
2023/01/03 11:09:55;;;;;;;54.57;17.33;;;;;;;13.17;100.00;102471.84;5097109;28;20284;-56
2023/01/03 11:12:37;;;;;;;;;;;;;;;13.62;100.00;102464.16;5091439;28;20028;-56
2023/01/03 11:15:17;;;;;;;46.38;18.92;;;;;;;12.35;100.00;102467.44;5088258;28;19974;-53
2023/01/03 11:17:59;;;;;;;49.53;18.75;;;;;;;14.19;100.00;102474.75;5097016;28;21166;-56
2023/01/03 11:20:49;;;;;;;42.97;19.23;;;;;;;12.24;100.00;102465.09;5101150;28;20036;-55
2023/01/03 11:23:25;;;;;;;54.15;20.23;;;;;;;12.04;100.00;102460.88;5095142;28;20338;-50
2023/01/03 11:26:35;;;;;;;48.47;20.80;;;;;;;12.46;100.00;102458.22;5098021;28;20066;-57
2023/01/03 11:29:29;;;;;;;62.67;24.50;;;;;;;11.85;100.00;102455.78;5096833;28;20047;-54
2023/01/03 11:32:13;;;;;;;59.67;22.60;;;;;;;12.19;100.00;102454.88;5096671;28;20043;-53
2023/01/03 11:34:47;;;;;;;50.78;22.10;;;;;;;12.03;100.00;102443.09;5118218;28;20284;-57
2023/01/03 11:37:31;;;;;;;50.80;19.80;;;;;;;11.82;100.00;102430.16;5116953;28;20097;-54
2023/01/03 11:40:20;;;;;;;49.83;20.80;;;;;;;12.21;100.00;102439.44;5115528;28;20299;-54
2023/01/03 11:43:02;;;;;;;44.40;18.57;;;;;;;11.90;100.00;102432.84;5117265;28;20263;-54
2023/01/03 11:46:06;;;;;;;46.17;18.07;;;;;;;12.00;100.00;102434.53;5116161;28;20294;-56
2023/01/03 11:49:04;;;;;;;67.17;25.57;;;;;;;11.99;100.00;102427.47;5112037;28;20265;-50
2023/01/03 11:51:30;;;;;;;55.13;22.63;;;;;;;13.41;100.00;102429.78;5107633;28;20288;-54
2023/01/03 11:54:12;;;;;;;37.27;14.97;;;;;;;11.88;100.00;102436.72;5113594;28;20279;-55
2023/01/03 11:56:43;;;;;;;49.27;22.63;;;;;;;12.02;100.00;102419.16;5114298;28;20035;-54
2023/01/03 11:59:39;;;;;;;53.70;23.83;;;;;;;12.07;100.00;102418.63;5110234;28;20344;-57
2023/01/03 12:02:36;;;;;;;49.63;19.70;;;;;;;12.02;100.00;102395.84;5107469;28;20256;-56
2023/01/03 12:05:31;;;;;;;53.13;21.77;;;;;;;11.93;100.00;102414.75;5110774;28;20264;-51
2023/01/03 12:08:19;;;;;;;42.67;21.07;;;;;;;12.25;100.00;102405.09;5116196;28;20265;-53
2023/01/03 12:10:54;;;;;;;41.72;18.02;;;;;;;12.05;100.00;102416.13;5118200;28;20268;-52
2023/01/03 12:13:40;;;;;;;37.77;15.77;;;;;;;12.17;100.00;102401.38;5118456;28;20028;-55
2023/01/03 12:16:22;;;;;;;27.70;11.63;;;;;;;11.76;100.00;102391.44;5108745;28;20273;-56
2023/01/03 12:19:15;;;;;;;25.27;11.80;;;;;;;12.18;100.00;102392.31;5108042;28;20309;-57
2023/01/03 12:21:50;;;;;;;21.13;10.67;;;;;;;12.33;100.00;102394.34;5095987;28;20340;-53